sensor_id;sensor_type;location;lat;lon;timestamp;P1;durP1;ratioP1;P2;durP2;ratioP2
29120;SDS011;16191;49.548;8.658;2024-02-28T00:02:03;29.20;;;17.05;;
29120;SDS011;16191;49.548;8.658;2024-02-28T00:04:30;25.73;;;15.82;;
29120;SDS011;16191;49.548;8.658;2024-02-28T00:06:57;24.83;;;16.48;;
29120;SDS011;16191;49.548;8.658;2024-02-28T00:09:24;25.98;;;15.80;;
29120;SDS011;16191;49.548;8.658;2024-02-28T00:11:50;25.80;;;15.50;;
29120;SDS011;16191;49.548;8.658;2024-02-28T00:14:17;23.13;;;15.13;;
29120;SDS011;16191;49.548;8.658;2024-02-28T00:16:44;25.73;;;16.05;;
29120;SDS011;16191;49.548;8.658;2024-02-28T00:19:12;22.95;;;15.80;;
29120;SDS011;16191;49.548;8.658;2024-02-28T00:21:39;25.50;;;15.25;;
29120;SDS011;16191;49.548;8.658;2024-02-28T00:24:08;27.10;;;15.95;;
29120;SDS011;16191;49.548;8.658;2024-02-28T00:26:35;26.40;;;15.48;;
29120;SDS011;16191;49.548;8.658;2024-02-28T00:29:02;23.98;;;15.10;;
29120;SDS011;16191;49.548;8.658;2024-02-28T00:31:29;25.05;;;16.27;;
29120;SDS011;16191;49.548;8.658;2024-02-28T00:33:56;28.13;;;17.05;;
29120;SDS011;16191;49.548;8.658;2024-02-28T00:36:22;27.85;;;16.63;;
29120;SDS011;16191;49.548;8.658;2024-02-28T00:38:49;27.17;;;16.55;;
29120;SDS011;16191;49.548;8.658;2024-02-28T00:41:16;26.80;;;16.30;;
29120;SDS011;16191;49.548;8.658;2024-02-28T00:43:42;33.50;;;17.70;;
29120;SDS011;16191;49.548;8.658;2024-02-28T00:46:09;26.83;;;16.48;;
29120;SDS011;16191;49.548;8.658;2024-02-28T00:48:39;29.27;;;16.23;;
29120;SDS011;16191;49.548;8.658;2024-02-28T00:51:06;28.70;;;17.50;;
29120;SDS011;16191;49.548;8.658;2024-02-28T00:53:34;26.65;;;17.15;;
29120;SDS011;16191;49.548;8.658;2024-02-28T00:56:01;27.50;;;16.08;;
29120;SDS011;16191;49.548;8.658;2024-02-28T00:58:27;22.88;;;14.35;;
29120;SDS011;16191;49.548;8.658;2024-02-28T01:00:57;23.85;;;14.60;;
29120;SDS011;16191;49.548;8.658;2024-02-28T01:03:24;28.50;;;15.30;;
29120;SDS011;16191;49.548;8.658;2024-02-28T01:05:50;28.73;;;15.40;;
29120;SDS011;16191;49.548;8.658;2024-02-28T01:08:18;28.52;;;16.33;;
29120;SDS011;16191;49.548;8.658;2024-02-28T01:10:45;27.35;;;16.15;;
29120;SDS011;16191;49.548;8.658;2024-02-28T01:13:12;27.42;;;17.23;;
29120;SDS011;16191;49.548;8.658;2024-02-28T01:15:39;28.00;;;17.90;;
29120;SDS011;16191;49.548;8.658;2024-02-28T01:18:08;26.90;;;16.92;;
29120;SDS011;16191;49.548;8.658;2024-02-28T01:20:36;27.05;;;16.33;;
29120;SDS011;16191;49.548;8.658;2024-02-28T01:23:03;27.85;;;17.30;;
29120;SDS011;16191;49.548;8.658;2024-02-28T01:25:29;31.90;;;17.15;;
29120;SDS011;16191;49.548;8.658;2024-02-28T01:27:56;29.90;;;16.95;;
29120;SDS011;16191;49.548;8.658;2024-02-28T01:30:26;27.73;;;16.67;;
29120;SDS011;16191;49.548;8.658;2024-02-28T01:32:53;26.70;;;16.52;;
29120;SDS011;16191;49.548;8.658;2024-02-28T01:35:20;30.02;;;17.98;;
29120;SDS011;16191;49.548;8.658;2024-02-28T01:37:47;26.10;;;16.70;;
29120;SDS011;16191;49.548;8.658;2024-02-28T01:40:15;24.88;;;16.30;;
29120;SDS011;16191;49.548;8.658;2024-02-28T01:42:42;26.73;;;17.02;;
29120;SDS011;16191;49.548;8.658;2024-02-28T01:45:09;25.83;;;16.40;;
29120;SDS011;16191;49.548;8.658;2024-02-28T01:47:40;25.58;;;16.25;;
29120;SDS011;16191;49.548;8.658;2024-02-28T01:50:09;29.60;;;16.52;;
29120;SDS011;16191;49.548;8.658;2024-02-28T01:52:37;27.08;;;16.48;;
29120;SDS011;16191;49.548;8.658;2024-02-28T01:55:05;28.02;;;16.05;;
29120;SDS011;16191;49.548;8.658;2024-02-28T01:57:33;30.10;;;17.67;;
29120;SDS011;16191;49.548;8.658;2024-02-28T02:00:00;30.80;;;17.10;;
29120;SDS011;16191;49.548;8.658;2024-02-28T02:02:29;27.63;;;17.03;;
29120;SDS011;16191;49.548;8.658;2024-02-28T02:04:56;30.95;;;17.45;;
29120;SDS011;16191;49.548;8.658;2024-02-28T02:07:24;27.35;;;16.20;;
29120;SDS011;16191;49.548;8.658;2024-02-28T02:09:52;29.60;;;16.30;;
29120;SDS011;16191;49.548;8.658;2024-02-28T02:12:19;28.33;;;17.45;;
29120;SDS011;16191;49.548;8.658;2024-02-28T02:14:49;32.80;;;18.50;;
29120;SDS011;16191;49.548;8.658;2024-02-28T02:17:16;29.58;;;18.23;;
29120;SDS011;16191;49.548;8.658;2024-02-28T02:19:43;30.52;;;17.90;;
29120;SDS011;16191;49.548;8.658;2024-02-28T02:22:10;30.52;;;18.17;;
29120;SDS011;16191;49.548;8.658;2024-02-28T02:24:40;28.83;;;18.58;;
29120;SDS011;16191;49.548;8.658;2024-02-28T02:27:06;30.55;;;17.88;;
29120;SDS011;16191;49.548;8.658;2024-02-28T02:29:34;28.50;;;17.52;;
29120;SDS011;16191;49.548;8.658;2024-02-28T02:32:00;26.25;;;16.95;;
29120;SDS011;16191;49.548;8.658;2024-02-28T02:34:27;31.10;;;17.17;;
29120;SDS011;16191;49.548;8.658;2024-02-28T02:36:54;27.45;;;16.77;;
29120;SDS011;16191;49.548;8.658;2024-02-28T02:39:21;31.30;;;17.48;;
29120;SDS011;16191;49.548;8.658;2024-02-28T02:41:47;28.90;;;17.08;;
29120;SDS011;16191;49.548;8.658;2024-02-28T02:44:34;27.70;;;15.80;;
29120;SDS011;16191;49.548;8.658;2024-02-28T02:47:21;26.95;;;16.85;;
29120;SDS011;16191;49.548;8.658;2024-02-28T02:50:08;32.95;;;16.30;;
29120;SDS011;16191;49.548;8.658;2024-02-28T02:52:54;29.00;;;15.75;;
29120;SDS011;16191;49.548;8.658;2024-02-28T02:55:41;25.80;;;15.65;;
29120;SDS011;16191;49.548;8.658;2024-02-28T02:58:28;26.42;;;15.95;;
29120;SDS011;16191;49.548;8.658;2024-02-28T03:00:54;28.70;;;17.55;;
29120;SDS011;16191;49.548;8.658;2024-02-28T03:03:21;28.90;;;16.25;;
29120;SDS011;16191;49.548;8.658;2024-02-28T03:05:48;25.40;;;15.82;;
29120;SDS011;16191;49.548;8.658;2024-02-28T03:08:15;27.70;;;17.10;;
29120;SDS011;16191;49.548;8.658;2024-02-28T03:10:41;28.25;;;16.25;;
29120;SDS011;16191;49.548;8.658;2024-02-28T03:13:08;29.15;;;17.23;;
29120;SDS011;16191;49.548;8.658;2024-02-28T03:15:35;25.42;;;16.67;;
29120;SDS011;16191;49.548;8.658;2024-02-28T03:18:02;25.48;;;16.08;;
29120;SDS011;16191;49.548;8.658;2024-02-28T03:20:30;29.38;;;18.25;;
29120;SDS011;16191;49.548;8.658;2024-02-28T03:22:56;25.80;;;16.63;;
29120;SDS011;16191;49.548;8.658;2024-02-28T03:25:23;36.03;;;19.75;;
29120;SDS011;16191;49.548;8.658;2024-02-28T03:27:50;33.60;;;19.38;;
29120;SDS011;16191;49.548;8.658;2024-02-28T03:30:17;32.17;;;18.90;;
29120;SDS011;16191;49.548;8.658;2024-02-28T03:32:44;36.42;;;20.02;;
29120;SDS011;16191;49.548;8.658;2024-02-28T03:35:10;37.95;;;19.23;;
29120;SDS011;16191;49.548;8.658;2024-02-28T03:37:38;30.10;;;19.02;;
29120;SDS011;16191;49.548;8.658;2024-02-28T03:40:05;34.55;;;19.42;;
29120;SDS011;16191;49.548;8.658;2024-02-28T03:42:32;37.55;;;19.95;;
29120;SDS011;16191;49.548;8.658;2024-02-28T03:44:59;35.30;;;19.27;;
29120;SDS011;16191;49.548;8.658;2024-02-28T03:47:26;28.52;;;18.13;;
29120;SDS011;16191;49.548;8.658;2024-02-28T03:49:53;39.05;;;20.17;;
29120;SDS011;16191;49.548;8.658;2024-02-28T03:52:23;33.17;;;18.25;;
29120;SDS011;16191;49.548;8.658;2024-02-28T03:54:51;32.53;;;18.60;;
29120;SDS011;16191;49.548;8.658;2024-02-28T03:57:18;31.63;;;19.33;;
29120;SDS011;16191;49.548;8.658;2024-02-28T03:59:45;31.25;;;18.95;;
29120;SDS011;16191;49.548;8.658;2024-02-28T04:02:11;32.53;;;18.80;;
29120;SDS011;16191;49.548;8.658;2024-02-28T04:04:38;34.05;;;19.52;;
29120;SDS011;16191;49.548;8.658;2024-02-28T04:07:05;34.78;;;20.75;;
29120;SDS011;16191;49.548;8.658;2024-02-28T04:09:32;28.30;;;18.67;;
29120;SDS011;16191;49.548;8.658;2024-02-28T04:11:58;31.38;;;18.90;;
29120;SDS011;16191;49.548;8.658;2024-02-28T04:14:25;33.58;;;19.75;;
29120;SDS011;16191;49.548;8.658;2024-02-28T04:16:52;34.90;;;20.08;;
29120;SDS011;16191;49.548;8.658;2024-02-28T04:19:19;32.28;;;19.08;;
29120;SDS011;16191;49.548;8.658;2024-02-28T04:21:46;31.10;;;19.10;;
29120;SDS011;16191;49.548;8.658;2024-02-28T04:24:13;38.85;;;20.88;;
29120;SDS011;16191;49.548;8.658;2024-02-28T04:26:43;38.85;;;19.67;;
29120;SDS011;16191;49.548;8.658;2024-02-28T04:29:09;36.17;;;20.80;;
29120;SDS011;16191;49.548;8.658;2024-02-28T04:31:40;38.53;;;21.80;;
29120;SDS011;16191;49.548;8.658;2024-02-28T04:34:07;32.97;;;20.05;;
29120;SDS011;16191;49.548;8.658;2024-02-28T04:36:34;35.58;;;20.70;;
29120;SDS011;16191;49.548;8.658;2024-02-28T04:39:01;33.42;;;21.40;;
29120;SDS011;16191;49.548;8.658;2024-02-28T04:41:30;40.47;;;22.75;;
29120;SDS011;16191;49.548;8.658;2024-02-28T04:43:57;39.42;;;22.42;;
29120;SDS011;16191;49.548;8.658;2024-02-28T04:46:24;37.35;;;20.85;;
29120;SDS011;16191;49.548;8.658;2024-02-28T04:48:50;36.28;;;20.92;;
29120;SDS011;16191;49.548;8.658;2024-02-28T04:51:17;38.67;;;22.38;;
29120;SDS011;16191;49.548;8.658;2024-02-28T04:53:44;30.80;;;19.70;;
29120;SDS011;16191;49.548;8.658;2024-02-28T04:56:11;34.45;;;20.35;;
29120;SDS011;16191;49.548;8.658;2024-02-28T04:58:37;35.58;;;21.08;;
29120;SDS011;16191;49.548;8.658;2024-02-28T05:01:04;37.35;;;20.85;;
29120;SDS011;16191;49.548;8.658;2024-02-28T05:03:31;33.95;;;20.83;;
29120;SDS011;16191;49.548;8.658;2024-02-28T05:05:58;37.45;;;22.25;;
29120;SDS011;16191;49.548;8.658;2024-02-28T05:08:25;43.53;;;22.50;;
29120;SDS011;16191;49.548;8.658;2024-02-28T05:10:53;41.90;;;25.88;;
29120;SDS011;16191;49.548;8.658;2024-02-28T05:13:20;43.40;;;25.60;;
29120;SDS011;16191;49.548;8.658;2024-02-28T05:15:48;38.50;;;22.83;;
29120;SDS011;16191;49.548;8.658;2024-02-28T05:18:15;46.40;;;23.90;;
29120;SDS011;16191;49.548;8.658;2024-02-28T05:20:43;41.85;;;24.85;;
29120;SDS011;16191;49.548;8.658;2024-02-28T05:23:09;45.90;;;26.38;;
29120;SDS011;16191;49.548;8.658;2024-02-28T05:25:36;44.63;;;24.00;;
29120;SDS011;16191;49.548;8.658;2024-02-28T05:28:03;40.90;;;23.33;;
29120;SDS011;16191;49.548;8.658;2024-02-28T05:30:30;46.42;;;23.48;;
29120;SDS011;16191;49.548;8.658;2024-02-28T05:32:57;49.38;;;25.55;;
29120;SDS011;16191;49.548;8.658;2024-02-28T05:35:23;41.13;;;23.40;;
29120;SDS011;16191;49.548;8.658;2024-02-28T05:37:53;41.28;;;23.52;;
29120;SDS011;16191;49.548;8.658;2024-02-28T05:40:20;45.03;;;24.05;;
29120;SDS011;16191;49.548;8.658;2024-02-28T05:42:47;44.25;;;24.85;;
29120;SDS011;16191;49.548;8.658;2024-02-28T05:45:14;42.15;;;23.35;;
29120;SDS011;16191;49.548;8.658;2024-02-28T05:47:41;47.15;;;25.98;;
29120;SDS011;16191;49.548;8.658;2024-02-28T05:50:08;45.25;;;25.40;;
29120;SDS011;16191;49.548;8.658;2024-02-28T05:52:36;44.03;;;24.23;;
29120;SDS011;16191;49.548;8.658;2024-02-28T05:55:03;43.53;;;24.15;;
29120;SDS011;16191;49.548;8.658;2024-02-28T05:57:30;39.65;;;23.55;;
29120;SDS011;16191;49.548;8.658;2024-02-28T05:59:57;46.75;;;26.45;;
29120;SDS011;16191;49.548;8.658;2024-02-28T06:02:24;40.90;;;23.95;;
29120;SDS011;16191;49.548;8.658;2024-02-28T06:04:50;46.03;;;25.40;;
29120;SDS011;16191;49.548;8.658;2024-02-28T06:07:17;44.33;;;25.77;;
29120;SDS011;16191;49.548;8.658;2024-02-28T06:09:44;45.97;;;25.95;;
29120;SDS011;16191;49.548;8.658;2024-02-28T06:12:10;45.50;;;25.85;;
29120;SDS011;16191;49.548;8.658;2024-02-28T06:14:38;49.92;;;27.50;;
29120;SDS011;16191;49.548;8.658;2024-02-28T06:17:04;51.72;;;28.25;;
29120;SDS011;16191;49.548;8.658;2024-02-28T06:19:31;52.33;;;27.88;;
29120;SDS011;16191;49.548;8.658;2024-02-28T06:21:58;45.05;;;23.65;;
29120;SDS011;16191;49.548;8.658;2024-02-28T06:24:24;50.08;;;29.10;;
29120;SDS011;16191;49.548;8.658;2024-02-28T06:26:51;51.05;;;27.25;;
29120;SDS011;16191;49.548;8.658;2024-02-28T06:29:18;49.95;;;26.55;;
29120;SDS011;16191;49.548;8.658;2024-02-28T06:31:49;52.45;;;27.58;;
29120;SDS011;16191;49.548;8.658;2024-02-28T06:34:19;51.08;;;27.13;;
29120;SDS011;16191;49.548;8.658;2024-02-28T06:36:45;54.00;;;27.20;;
29120;SDS011;16191;49.548;8.658;2024-02-28T06:39:12;54.47;;;28.33;;
29120;SDS011;16191;49.548;8.658;2024-02-28T06:41:39;48.47;;;26.60;;
29120;SDS011;16191;49.548;8.658;2024-02-28T06:44:05;48.95;;;27.10;;
29120;SDS011;16191;49.548;8.658;2024-02-28T06:46:34;58.88;;;28.30;;
29120;SDS011;16191;49.548;8.658;2024-02-28T06:49:00;49.08;;;26.75;;
29120;SDS011;16191;49.548;8.658;2024-02-28T06:51:28;47.72;;;25.15;;
29120;SDS011;16191;49.548;8.658;2024-02-28T06:53:55;52.58;;;28.70;;
29120;SDS011;16191;49.548;8.658;2024-02-28T06:56:22;52.42;;;26.35;;
29120;SDS011;16191;49.548;8.658;2024-02-28T06:58:49;51.72;;;28.55;;
29120;SDS011;16191;49.548;8.658;2024-02-28T07:01:15;51.78;;;26.65;;
29120;SDS011;16191;49.548;8.658;2024-02-28T07:03:42;60.85;;;29.23;;
29120;SDS011;16191;49.548;8.658;2024-02-28T07:06:09;56.63;;;29.35;;
29120;SDS011;16191;49.548;8.658;2024-02-28T07:08:36;56.35;;;29.55;;
29120;SDS011;16191;49.548;8.658;2024-02-28T07:11:03;57.10;;;28.40;;
29120;SDS011;16191;49.548;8.658;2024-02-28T07:13:30;52.95;;;28.48;;
29120;SDS011;16191;49.548;8.658;2024-02-28T07:15:56;55.67;;;28.33;;
29120;SDS011;16191;49.548;8.658;2024-02-28T07:18:23;55.42;;;27.92;;
29120;SDS011;16191;49.548;8.658;2024-02-28T07:20:52;54.13;;;27.60;;
29120;SDS011;16191;49.548;8.658;2024-02-28T07:23:18;51.10;;;26.95;;
29120;SDS011;16191;49.548;8.658;2024-02-28T07:25:45;54.30;;;28.65;;
29120;SDS011;16191;49.548;8.658;2024-02-28T07:28:11;52.53;;;27.17;;
29120;SDS011;16191;49.548;8.658;2024-02-28T07:30:38;48.63;;;27.13;;
29120;SDS011;16191;49.548;8.658;2024-02-28T07:33:05;42.88;;;24.63;;
29120;SDS011;16191;49.548;8.658;2024-02-28T07:35:32;48.20;;;26.10;;
29120;SDS011;16191;49.548;8.658;2024-02-28T07:37:59;44.53;;;25.67;;
29120;SDS011;16191;49.548;8.658;2024-02-28T07:40:26;50.58;;;25.55;;
29120;SDS011;16191;49.548;8.658;2024-02-28T07:42:53;47.13;;;25.25;;
29120;SDS011;16191;49.548;8.658;2024-02-28T07:45:19;47.75;;;25.85;;
29120;SDS011;16191;49.548;8.658;2024-02-28T07:47:46;48.92;;;25.50;;
29120;SDS011;16191;49.548;8.658;2024-02-28T07:50:13;48.72;;;27.02;;
29120;SDS011;16191;49.548;8.658;2024-02-28T07:52:39;52.00;;;26.42;;
29120;SDS011;16191;49.548;8.658;2024-02-28T07:55:06;48.65;;;26.08;;
29120;SDS011;16191;49.548;8.658;2024-02-28T07:57:33;42.88;;;24.13;;
29120;SDS011;16191;49.548;8.658;2024-02-28T08:00:00;46.10;;;23.83;;
29120;SDS011;16191;49.548;8.658;2024-02-28T08:02:37;47.03;;;25.63;;
29120;SDS011;16191;49.548;8.658;2024-02-28T08:05:05;40.42;;;23.23;;
29120;SDS011;16191;49.548;8.658;2024-02-28T08:07:34;40.92;;;23.40;;
29120;SDS011;16191;49.548;8.658;2024-02-28T08:10:01;37.53;;;22.42;;
29120;SDS011;16191;49.548;8.658;2024-02-28T08:12:28;40.03;;;22.65;;
29120;SDS011;16191;49.548;8.658;2024-02-28T08:14:54;35.85;;;21.40;;
29120;SDS011;16191;49.548;8.658;2024-02-28T08:17:21;37.47;;;22.25;;
29120;SDS011;16191;49.548;8.658;2024-02-28T08:19:47;39.45;;;22.88;;
29120;SDS011;16191;49.548;8.658;2024-02-28T08:22:14;43.30;;;23.63;;
29120;SDS011;16191;49.548;8.658;2024-02-28T08:24:41;32.15;;;21.40;;
29120;SDS011;16191;49.548;8.658;2024-02-28T08:27:08;37.80;;;20.77;;
29120;SDS011;16191;49.548;8.658;2024-02-28T08:29:34;32.97;;;20.60;;
29120;SDS011;16191;49.548;8.658;2024-02-28T08:32:02;29.95;;;20.42;;
29120;SDS011;16191;49.548;8.658;2024-02-28T08:34:29;32.83;;;20.35;;
29120;SDS011;16191;49.548;8.658;2024-02-28T08:36:56;33.25;;;20.05;;
29120;SDS011;16191;49.548;8.658;2024-02-28T08:39:22;34.55;;;21.23;;
29120;SDS011;16191;49.548;8.658;2024-02-28T08:41:50;36.05;;;22.30;;
29120;SDS011;16191;49.548;8.658;2024-02-28T08:44:16;32.83;;;21.33;;
29120;SDS011;16191;49.548;8.658;2024-02-28T08:46:46;37.20;;;21.55;;
29120;SDS011;16191;49.548;8.658;2024-02-28T08:49:13;38.40;;;22.63;;
29120;SDS011;16191;49.548;8.658;2024-02-28T08:51:40;35.22;;;22.05;;
29120;SDS011;16191;49.548;8.658;2024-02-28T08:54:07;42.92;;;22.48;;
29120;SDS011;16191;49.548;8.658;2024-02-28T08:56:34;35.72;;;22.70;;
29120;SDS011;16191;49.548;8.658;2024-02-28T08:59:04;32.95;;;21.95;;
29120;SDS011;16191;49.548;8.658;2024-02-28T09:01:31;36.95;;;22.25;;
29120;SDS011;16191;49.548;8.658;2024-02-28T09:04:00;33.25;;;21.73;;
29120;SDS011;16191;49.548;8.658;2024-02-28T09:06:27;36.17;;;22.05;;
29120;SDS011;16191;49.548;8.658;2024-02-28T09:08:54;34.83;;;20.48;;
29120;SDS011;16191;49.548;8.658;2024-02-28T09:11:20;35.10;;;20.58;;
29120;SDS011;16191;49.548;8.658;2024-02-28T09:13:48;32.13;;;20.67;;
29120;SDS011;16191;49.548;8.658;2024-02-28T09:16:14;34.75;;;21.13;;
29120;SDS011;16191;49.548;8.658;2024-02-28T09:18:41;35.65;;;21.92;;
29120;SDS011;16191;49.548;8.658;2024-02-28T09:21:08;33.28;;;21.42;;
29120;SDS011;16191;49.548;8.658;2024-02-28T09:23:35;33.90;;;20.90;;
29120;SDS011;16191;49.548;8.658;2024-02-28T09:26:05;34.72;;;21.08;;
29120;SDS011;16191;49.548;8.658;2024-02-28T09:28:32;31.17;;;20.40;;
29120;SDS011;16191;49.548;8.658;2024-02-28T09:30:58;38.08;;;20.88;;
29120;SDS011;16191;49.548;8.658;2024-02-28T09:33:27;35.05;;;20.50;;
29120;SDS011;16191;49.548;8.658;2024-02-28T09:35:54;29.83;;;19.10;;
29120;SDS011;16191;49.548;8.658;2024-02-28T09:38:21;35.72;;;20.70;;
29120;SDS011;16191;49.548;8.658;2024-02-28T09:40:48;29.08;;;18.90;;
29120;SDS011;16191;49.548;8.658;2024-02-28T09:43:15;30.80;;;19.40;;
29120;SDS011;16191;49.548;8.658;2024-02-28T09:45:50;31.52;;;19.75;;
29120;SDS011;16191;49.548;8.658;2024-02-28T09:48:17;36.30;;;20.55;;
29120;SDS011;16191;49.548;8.658;2024-02-28T09:50:45;35.97;;;22.92;;
29120;SDS011;16191;49.548;8.658;2024-02-28T09:53:12;32.92;;;21.42;;
29120;SDS011;16191;49.548;8.658;2024-02-28T09:55:38;34.67;;;20.42;;
29120;SDS011;16191;49.548;8.658;2024-02-28T09:58:05;33.47;;;20.90;;
29120;SDS011;16191;49.548;8.658;2024-02-28T10:00:34;28.45;;;19.60;;
29120;SDS011;16191;49.548;8.658;2024-02-28T10:03:02;31.65;;;20.85;;
29120;SDS011;16191;49.548;8.658;2024-02-28T10:05:30;32.95;;;22.13;;
29120;SDS011;16191;49.548;8.658;2024-02-28T10:07:59;32.97;;;21.13;;
29120;SDS011;16191;49.548;8.658;2024-02-28T10:10:26;34.95;;;20.48;;
29120;SDS011;16191;49.548;8.658;2024-02-28T10:12:53;33.95;;;20.73;;
29120;SDS011;16191;49.548;8.658;2024-02-28T10:15:20;33.45;;;20.85;;
29120;SDS011;16191;49.548;8.658;2024-02-28T10:17:48;30.65;;;20.55;;
29120;SDS011;16191;49.548;8.658;2024-02-28T10:20:15;31.65;;;20.52;;
29120;SDS011;16191;49.548;8.658;2024-02-28T10:22:42;30.45;;;19.75;;
29120;SDS011;16191;49.548;8.658;2024-02-28T10:25:08;30.08;;;20.17;;
29120;SDS011;16191;49.548;8.658;2024-02-28T10:27:35;31.50;;;20.75;;
29120;SDS011;16191;49.548;8.658;2024-02-28T10:30:02;29.17;;;19.67;;
29120;SDS011;16191;49.548;8.658;2024-02-28T10:32:33;28.45;;;19.58;;
29120;SDS011;16191;49.548;8.658;2024-02-28T10:35:02;31.35;;;19.17;;
29120;SDS011;16191;49.548;8.658;2024-02-28T10:37:30;28.58;;;19.15;;
29120;SDS011;16191;49.548;8.658;2024-02-28T10:39:57;30.92;;;19.58;;
29120;SDS011;16191;49.548;8.658;2024-02-28T10:42:29;29.58;;;19.33;;
29120;SDS011;16191;49.548;8.658;2024-02-28T10:45:00;31.73;;;19.95;;
29120;SDS011;16191;49.548;8.658;2024-02-28T10:47:43;27.35;;;18.58;;
29120;SDS011;16191;49.548;8.658;2024-02-28T10:50:17;29.58;;;18.17;;
29120;SDS011;16191;49.548;8.658;2024-02-28T10:52:44;28.98;;;18.77;;
29120;SDS011;16191;49.548;8.658;2024-02-28T10:55:21;27.13;;;18.02;;
29120;SDS011;16191;49.548;8.658;2024-02-28T10:57:54;23.85;;;16.77;;
29120;SDS011;16191;49.548;8.658;2024-02-28T11:00:27;29.73;;;19.48;;
29120;SDS011;16191;49.548;8.658;2024-02-28T11:02:56;29.23;;;17.80;;
29120;SDS011;16191;49.548;8.658;2024-02-28T11:05:34;29.20;;;19.42;;
29120;SDS011;16191;49.548;8.658;2024-02-28T11:08:02;27.40;;;18.38;;
29120;SDS011;16191;49.548;8.658;2024-02-28T11:10:31;29.05;;;19.75;;
29120;SDS011;16191;49.548;8.658;2024-02-28T11:13:01;27.10;;;19.45;;
29120;SDS011;16191;49.548;8.658;2024-02-28T11:15:28;26.83;;;18.10;;
29120;SDS011;16191;49.548;8.658;2024-02-28T11:17:55;30.48;;;18.02;;
29120;SDS011;16191;49.548;8.658;2024-02-28T11:20:33;25.48;;;16.75;;
29120;SDS011;16191;49.548;8.658;2024-02-28T11:23:00;25.38;;;16.00;;
29120;SDS011;16191;49.548;8.658;2024-02-28T11:25:27;24.33;;;16.83;;
29120;SDS011;16191;49.548;8.658;2024-02-28T11:27:53;27.55;;;17.42;;
29120;SDS011;16191;49.548;8.658;2024-02-28T11:30:21;22.85;;;16.10;;
29120;SDS011;16191;49.548;8.658;2024-02-28T11:32:48;25.00;;;16.73;;
29120;SDS011;16191;49.548;8.658;2024-02-28T11:35:14;23.48;;;16.27;;
29120;SDS011;16191;49.548;8.658;2024-02-28T11:37:41;22.90;;;16.30;;
29120;SDS011;16191;49.548;8.658;2024-02-28T11:40:12;22.60;;;15.60;;
29120;SDS011;16191;49.548;8.658;2024-02-28T11:42:40;23.20;;;14.10;;
29120;SDS011;16191;49.548;8.658;2024-02-28T11:45:10;21.15;;;14.23;;
29120;SDS011;16191;49.548;8.658;2024-02-28T11:47:37;19.63;;;13.85;;
29120;SDS011;16191;49.548;8.658;2024-02-28T11:50:04;20.38;;;15.02;;
29120;SDS011;16191;49.548;8.658;2024-02-28T11:52:35;22.50;;;15.82;;
29120;SDS011;16191;49.548;8.658;2024-02-28T11:55:03;25.20;;;15.95;;
29120;SDS011;16191;49.548;8.658;2024-02-28T11:57:30;21.55;;;15.63;;
29120;SDS011;16191;49.548;8.658;2024-02-28T12:00:07;21.57;;;14.90;;
29120;SDS011;16191;49.548;8.658;2024-02-28T12:02:35;20.60;;;14.25;;
29120;SDS011;16191;49.548;8.658;2024-02-28T12:05:03;25.27;;;15.43;;
29120;SDS011;16191;49.548;8.658;2024-02-28T12:07:32;23.90;;;15.55;;
29120;SDS011;16191;49.548;8.658;2024-02-28T12:09:59;21.45;;;15.68;;
29120;SDS011;16191;49.548;8.658;2024-02-28T12:12:29;23.02;;;17.00;;
29120;SDS011;16191;49.548;8.658;2024-02-28T12:14:59;27.73;;;16.05;;
29120;SDS011;16191;49.548;8.658;2024-02-28T12:17:26;24.08;;;15.90;;
29120;SDS011;16191;49.548;8.658;2024-02-28T12:19:53;23.63;;;15.18;;
29120;SDS011;16191;49.548;8.658;2024-02-28T12:22:22;23.35;;;14.85;;
29120;SDS011;16191;49.548;8.658;2024-02-28T12:24:48;22.20;;;14.07;;
29120;SDS011;16191;49.548;8.658;2024-02-28T12:27:15;19.70;;;14.15;;
29120;SDS011;16191;49.548;8.658;2024-02-28T12:29:42;22.17;;;15.05;;
29120;SDS011;16191;49.548;8.658;2024-02-28T12:32:08;20.02;;;15.15;;
29120;SDS011;16191;49.548;8.658;2024-02-28T12:34:35;20.58;;;14.45;;
29120;SDS011;16191;49.548;8.658;2024-02-28T12:37:02;22.08;;;13.63;;
29120;SDS011;16191;49.548;8.658;2024-02-28T12:39:30;24.38;;;14.25;;
29120;SDS011;16191;49.548;8.658;2024-02-28T12:42:00;20.70;;;14.73;;
29120;SDS011;16191;49.548;8.658;2024-02-28T12:44:27;21.00;;;14.32;;
29120;SDS011;16191;49.548;8.658;2024-02-28T12:46:54;18.63;;;13.88;;
29120;SDS011;16191;49.548;8.658;2024-02-28T12:49:20;18.30;;;13.27;;
29120;SDS011;16191;49.548;8.658;2024-02-28T12:51:47;23.88;;;14.93;;
29120;SDS011;16191;49.548;8.658;2024-02-28T12:54:15;21.55;;;15.10;;
29120;SDS011;16191;49.548;8.658;2024-02-28T12:56:42;22.45;;;14.48;;
29120;SDS011;16191;49.548;8.658;2024-02-28T12:59:10;20.65;;;14.30;;
29120;SDS011;16191;49.548;8.658;2024-02-28T13:01:37;21.23;;;13.73;;
29120;SDS011;16191;49.548;8.658;2024-02-28T13:04:04;22.05;;;13.93;;
29120;SDS011;16191;49.548;8.658;2024-02-28T13:06:32;19.83;;;13.50;;
29120;SDS011;16191;49.548;8.658;2024-02-28T13:08:58;17.95;;;13.30;;
29120;SDS011;16191;49.548;8.658;2024-02-28T13:11:25;20.63;;;14.73;;
29120;SDS011;16191;49.548;8.658;2024-02-28T13:13:52;19.08;;;12.30;;
29120;SDS011;16191;49.548;8.658;2024-02-28T13:16:19;20.05;;;13.50;;
29120;SDS011;16191;49.548;8.658;2024-02-28T13:18:48;19.23;;;13.82;;
29120;SDS011;16191;49.548;8.658;2024-02-28T13:21:14;20.88;;;13.27;;
29120;SDS011;16191;49.548;8.658;2024-02-28T13:23:42;17.33;;;12.10;;
29120;SDS011;16191;49.548;8.658;2024-02-28T13:26:09;18.02;;;12.05;;
29120;SDS011;16191;49.548;8.658;2024-02-28T13:28:44;17.42;;;11.70;;
29120;SDS011;16191;49.548;8.658;2024-02-28T13:31:15;16.88;;;11.18;;
29120;SDS011;16191;49.548;8.658;2024-02-28T13:33:42;17.50;;;11.85;;
29120;SDS011;16191;49.548;8.658;2024-02-28T13:36:09;15.88;;;11.52;;
29120;SDS011;16191;49.548;8.658;2024-02-28T13:38:36;18.23;;;10.75;;
29120;SDS011;16191;49.548;8.658;2024-02-28T13:41:03;15.65;;;10.60;;
29120;SDS011;16191;49.548;8.658;2024-02-28T13:43:30;13.38;;;10.77;;
29120;SDS011;16191;49.548;8.658;2024-02-28T13:45:57;17.25;;;11.95;;
29120;SDS011;16191;49.548;8.658;2024-02-28T13:48:27;14.73;;;11.43;;
29120;SDS011;16191;49.548;8.658;2024-02-28T13:50:55;16.40;;;11.60;;
29120;SDS011;16191;49.548;8.658;2024-02-28T13:53:22;18.02;;;11.57;;
29120;SDS011;16191;49.548;8.658;2024-02-28T13:55:51;13.93;;;11.07;;
29120;SDS011;16191;49.548;8.658;2024-02-28T13:58:18;18.98;;;12.10;;
29120;SDS011;16191;49.548;8.658;2024-02-28T14:00:45;13.55;;;10.35;;
29120;SDS011;16191;49.548;8.658;2024-02-28T14:03:14;14.85;;;10.85;;
29120;SDS011;16191;49.548;8.658;2024-02-28T14:05:41;14.45;;;10.82;;
29120;SDS011;16191;49.548;8.658;2024-02-28T14:08:08;15.15;;;11.52;;
29120;SDS011;16191;49.548;8.658;2024-02-28T14:10:36;15.05;;;11.30;;
29120;SDS011;16191;49.548;8.658;2024-02-28T14:13:03;15.68;;;11.35;;
29120;SDS011;16191;49.548;8.658;2024-02-28T14:15:30;14.75;;;10.68;;
29120;SDS011;16191;49.548;8.658;2024-02-28T14:17:57;15.63;;;10.43;;
29120;SDS011;16191;49.548;8.658;2024-02-28T14:20:24;16.23;;;10.90;;
29120;SDS011;16191;49.548;8.658;2024-02-28T14:22:51;15.25;;;10.85;;
29120;SDS011;16191;49.548;8.658;2024-02-28T14:25:18;17.70;;;11.45;;